Billington, Texas
Current Conditions -  °F | °C
As of 9:53 PM on Sunday 23 Nov 2014 (Local Time) from KCNW Reporting Station
Clear Clear  
Wind Chill: 57°   Ceiling: Unl
Heat Index: 57°   Visibility: 10mi
Dew Point: 39°   Wind: 17mph
Humidity: 51%   Direction: 330°NNW
Pressure: 29.79"   Gusts: NA
Location:  31.656°N, 96.98°W
Report Text: KCNW 240353Z 33015KT 10SM SKC 14/04 A2979
Loading
Personal Weather Stations






























Interactive Weather Map New forecast layout! Learn more

10-Day Weather Forecast

Advertisements
Track Severe Weather on mobile